Time;durP1;ratioP1;P1;durP2;ratioP2;P2;SDS_P1;SDS_P2;PMS_P1;PMS_P2;Temp;Humidity;BMP_temperature;BMP_pressure;BME280_temperature;BME280_humidity;BME280_pressure;Samples;Min_cycle;Max_cycle;Signal;HPM_P1;HPM_P2
2023/04/03 05:59:31;;;;;;;3.75;2.13;;;;;;;0.67;75.05;101214.34;30960813;28;96342;-67
2023/04/03 06:14:32;;;;;;;5.18;2.45;;;;;;;1.92;73.91;101215.31;30951490;28;96713;-65
2023/04/03 06:29:32;;;;;;;6.28;2.70;;;;;;;2.74;71.40;101233.28;30978544;28;105589;-67
2023/04/03 06:44:34;;;;;;;5.18;1.80;;;;;;;3.39;68.49;101236.22;31007198;28;97315;-66
2023/04/03 06:59:35;;;;;;;7.65;2.35;;;;;;;4.64;66.54;101269.34;30980055;28;97001;-65
2023/04/03 07:14:35;;;;;;;4.82;2.20;;;;;;;5.16;64.32;101277.22;30921654;28;97487;-68
2023/04/03 07:29:36;;;;;;;6.90;2.55;;;;;;;5.96;63.20;101279.41;30923292;28;97460;-65
2023/04/03 07:44:36;;;;;;;4.78;2.05;;;;;;;6.46;61.32;101286.34;30918576;28;97025;-67
2023/04/03 07:59:36;;;;;;;4.20;2.08;;;;;;;7.05;58.29;101285.31;30912660;28;111181;-68
2023/04/03 08:14:37;;;;;;;14.30;3.03;;;;;;;8.16;56.70;101287.03;30913938;28;102347;-67
2023/04/03 08:29:37;;;;;;;2.42;1.75;;;;;;;10.07;53.08;101282.91;30917317;28;97124;-66
2023/04/03 08:44:46;;;;;;;6.07;2.10;;;;;;;12.27;48.53;101288.75;30898624;28;97560;-67
2023/04/03 08:59:47;;;;;;;6.50;1.60;;;;;;;13.54;41.17;101288.16;30841199;28;97080;-68
2023/04/03 09:15:19;;;;;;;3.63;1.60;;;;;;;19.92;36.54;101280.56;30868906;28;98495;-67
2023/04/03 09:30:23;;;;;;;4.30;1.53;;;;;;;18.05;29.11;101272.25;30889483;28;98069;-67
2023/04/03 09:45:24;;;;;;;3.97;1.30;;;;;;;21.97;26.38;101287.56;30821710;28;97180;-67
2023/04/03 10:00:29;;;;;;;6.27;1.70;;;;;;;22.01;23.06;101287.13;30875803;28;97023;-68
2023/04/03 10:15:39;;;;;;;7.03;1.60;;;;;;;16.01;26.70;101294.88;30856521;28;97610;-68
2023/04/03 10:31:06;;;;;;;10.30;2.13;;;;;;;12.51;28.21;101275.56;30827885;28;97119;-67
2023/04/03 10:46:11;;;;;;;6.67;1.83;;;;;;;14.56;26.81;101269.13;30841168;28;97086;-67
2023/04/03 11:01:16;;;;;;;3.50;1.60;;;;;;;16.78;24.67;101271.50;30841328;28;97438;-68
2023/04/03 11:16:25;;;;;;;4.97;2.17;;;;;;;17.88;23.10;101264.38;30831014;28;98089;-67
2023/04/03 11:31:28;;;;;;;3.30;1.17;;;;;;;27.05;16.76;101259.06;30900756;28;97919;-68
2023/04/03 11:46:57;;;;;;;7.97;1.83;;;;;;;18.61;22.46;101264.16;30862580;28;97069;-66
2023/04/03 12:01:58;;;;;;;3.37;1.40;;;;;;;15.78;23.13;101251.03;30836490;28;97671;-66
2023/04/03 12:16:59;;;;;;;4.50;1.45;;;;;;;32.77;12.22;101235.38;30855440;28;97197;-67
2023/04/03 12:32:37;;;;;;;5.40;1.57;;;;;;;22.65;16.32;101234.41;30873259;28;97374;-69
2023/04/03 12:47:39;;;;;;;4.10;1.67;;;;;;;22.15;16.05;101213.53;30903766;28;97181;-67
2023/04/03 13:02:45;;;;;;;4.53;2.07;;;;;;;17.72;18.65;101225.03;30866900;28;97443;-67
2023/04/03 13:17:48;;;;;;;7.10;2.30;;;;;;;15.35;21.44;101220.06;30897335;28;97413;-68
2023/04/03 13:32:49;;;;;;;4.47;1.83;;;;;;;14.91;21.79;101222.47;30826890;28;97754;-69
2023/04/03 13:47:52;;;;;;;5.93;2.27;;;;;;;12.66;24.32;101227.72;30819927;28;96928;-70
2023/04/03 14:02:56;;;;;;;6.27;2.13;;;;;;;10.71;25.46;101221.16;30829519;28;98268;-68
2023/04/03 14:17:57;;;;;;;2.87;1.80;;;;;;;12.02;25.75;101208.41;30937349;28;96918;-67
2023/04/03 14:32:58;;;;;;;3.47;1.70;;;;;;;10.03;26.97;101219.44;30862472;28;97297;-67
2023/04/03 14:47:59;;;;;;;5.63;1.80;;;;;;;10.39;27.15;101199.22;30845334;28;97531;-67
2023/04/03 15:02:59;;;;;;;4.18;1.75;;;;;;;8.59;27.96;101209.06;30866738;28;97597;-67
2023/04/03 15:17:59;;;;;;;4.22;2.17;;;;;;;7.75;28.82;101215.19;30865584;28;96698;-67
2023/04/03 15:33:00;;;;;;;3.20;1.80;;;;;;;7.04;30.87;101209.44;30864327;28;96701;-66
2023/04/03 15:48:02;;;;;;;5.03;1.83;;;;;;;6.32;31.99;101216.75;30854704;28;97323;-69
2023/04/03 16:03:12;;;;;;;6.00;2.37;;;;;;;5.76;33.59;101225.34;30857977;28;96780;-66
2023/04/03 16:18:13;;;;;;;3.10;1.95;;;;;;;5.43;35.15;101230.34;30823853;28;97660;-71
2023/04/03 16:33:14;;;;;;;5.88;2.42;;;;;;;5.16;35.73;101245.53;30846386;28;97377;-66
2023/04/03 16:48:15;;;;;;;2.63;1.60;;;;;;;4.67;36.15;101250.63;30844377;28;97569;-66
2023/04/03 17:03:15;;;;;;;3.78;2.50;;;;;;;4.36;37.27;101268.59;30745115;28;97098;-63
2023/04/03 17:18:15;;;;;;;6.88;2.22;;;;;;;4.01;38.18;101281.47;30790402;28;97162;-65
2023/04/03 17:33:16;;;;;;;4.95;2.60;;;;;;;3.90;38.58;101279.53;30730033;28;96657;-64
2023/04/03 17:48:17;;;;;;;4.43;2.28;;;;;;;3.75;39.45;101283.19;30767402;28;96915;-64
2023/04/03 18:03:17;;;;;;;10.10;2.47;;;;;;;3.56;39.61;101277.28;30727459;28;97206;-63
2023/04/03 18:18:17;;;;;;;11.05;2.40;;;;;;;3.52;40.40;101282.84;30763877;28;97366;-65
2023/04/03 18:33:18;;;;;;;7.72;2.20;;;;;;;3.47;40.84;101285.78;30839269;28;97138;-67
2023/04/03 18:48:20;;;;;;;6.43;2.90;;;;;;;3.39;41.62;101290.72;30745128;28;103495;-71
2023/04/03 19:03:20;;;;;;;7.07;2.20;;;;;;;3.28;41.63;101283.47;30731042;28;97351;-68
2023/04/03 19:18:20;;;;;;;5.30;2.88;;;;;;;3.25;41.91;101290.72;30735368;28;97345;-67
2023/04/03 19:33:21;;;;;;;5.45;2.53;;;;;;;3.18;42.56;101284.97;30791764;28;99669;-68
2023/04/03 19:48:21;;;;;;;6.95;2.53;;;;;;;3.16;43.25;101289.50;30801376;28;97115;-69
2023/04/03 20:03:22;;;;;;;6.70;3.10;;;;;;;3.06;43.64;101291.84;30780737;28;97225;-68
2023/04/03 20:18:23;;;;;;;6.38;2.80;;;;;;;3.05;43.36;101296.25;30826609;28;96753;-69
2023/04/03 20:33:25;;;;;;;3.67;1.90;;;;;;;2.94;43.89;101301.34;30792535;28;98863;-67
2023/04/03 20:48:25;;;;;;;10.13;4.03;;;;;;;2.65;44.66;101295.19;30766376;28;96919;-68
2023/04/03 21:03:29;;;;;;;5.18;2.50;;;;;;;1.99;45.78;101295.47;30737769;28;97085;-70
2023/04/03 21:18:44;;;;;;;3.60;1.93;;;;;;;1.24;46.04;101302.28;30741803;28;97604;-68
2023/04/03 21:33:44;;;;;;;5.35;1.88;;;;;;;0.60;46.51;101300.34;30814407;28;96992;-66
2023/04/03 21:48:45;;;;;;;6.43;2.65;;;;;;;0.14;47.34;101307.91;30855158;28;96972;-68
2023/04/03 22:03:46;;;;;;;6.07;2.83;;;;;;;-0.19;48.25;101306.00;30820594;28;97465;-66
2023/04/03 22:18:46;;;;;;;6.60;2.10;;;;;;;-0.45;49.76;101305.44;30736370;28;96604;-68
2023/04/03 22:33:46;;;;;;;3.67;1.83;;;;;;;-0.72;50.19;101315.41;30739564;28;111522;-66
2023/04/03 22:48:47;;;;;;;6.47;2.88;;;;;;;-0.91;51.29;101325.88;30750619;28;96946;-66
2023/04/03 23:03:47;;;;;;;6.32;3.17;;;;;;;-1.10;51.34;101329.28;30749279;28;96582;-69
2023/04/03 23:18:48;;;;;;;5.50;2.17;;;;;;;-1.23;51.97;101325.50;30747691;28;109525;-68
2023/04/03 23:33:49;;;;;;;5.35;2.28;;;;;;;-1.03;52.90;101317.63;30746421;28;96605;-68
2023/04/03 23:48:49;;;;;;;4.57;2.35;;;;;;;-0.81;52.63;101300.97;30744620;28;96669;-67
